sensor_id;sensor_type;location;lat;lon;timestamp;noise_LAeq;noise_LA_min;noise_LA_max;noise_LA01;noise_LA95
67322;Laerm;57666;51.436;5.978;2024-01-27T00:00:00;37.46;36.25;38.53;;
67322;Laerm;57666;51.436;5.978;2024-01-27T00:00:11;37.82;36.47;39.84;;
67322;Laerm;57666;51.436;5.978;2024-01-27T00:00:21;37.91;36.79;39.21;;
67322;Laerm;57666;51.436;5.978;2024-01-27T00:00:31;37.65;36.55;39.16;;
67322;Laerm;57666;51.436;5.978;2024-01-27T00:00:42;38.02;36.61;40.23;;
67322;Laerm;57666;51.436;5.978;2024-01-27T00:00:52;38.53;36.54;43.81;;
67322;Laerm;57666;51.436;5.978;2024-01-27T00:01:03;41.05;37.13;46.07;;
67322;Laerm;57666;51.436;5.978;2024-01-27T00:01:14;37.84;36.81;39.47;;
67322;Laerm;57666;51.436;5.978;2024-01-27T00:01:28;37.75;36.36;38.80;;
67322;Laerm;57666;51.436;5.978;2024-01-27T00:01:38;37.77;36.56;41.97;;
67322;Laerm;57666;51.436;5.978;2024-01-27T00:01:48;37.97;36.72;39.80;;
67322;Laerm;57666;51.436;5.978;2024-01-27T00:01:59;37.66;36.36;43.19;;
67322;Laerm;57666;51.436;5.978;2024-01-27T00:02:09;37.81;36.47;39.05;;
67322;Laerm;57666;51.436;5.978;2024-01-27T00:02:19;37.73;36.37;45.87;;
67322;Laerm;57666;51.436;5.978;2024-01-27T00:02:30;37.25;35.99;40.50;;
67322;Laerm;57666;51.436;5.978;2024-01-27T00:02:40;37.52;36.08;43.27;;
67322;Laerm;57666;51.436;5.978;2024-01-27T00:02:51;37.68;36.33;42.53;;
67322;Laerm;57666;51.436;5.978;2024-01-27T00:03:02;37.56;35.89;39.40;;
67322;Laerm;57666;51.436;5.978;2024-01-27T00:03:13;38.41;36.67;45.54;;
67322;Laerm;57666;51.436;5.978;2024-01-27T00:03:25;37.91;36.34;40.75;;
67322;Laerm;57666;51.436;5.978;2024-01-27T00:03:36;37.26;36.20;38.32;;
67322;Laerm;57666;51.436;5.978;2024-01-27T00:03:46;37.27;36.09;39.73;;
67322;Laerm;57666;51.436;5.978;2024-01-27T00:03:57;37.36;36.38;38.25;;
67322;Laerm;57666;51.436;5.978;2024-01-27T00:04:07;37.44;36.24;38.61;;
67322;Laerm;57666;51.436;5.978;2024-01-27T00:04:17;37.58;36.34;38.76;;
67322;Laerm;57666;51.436;5.978;2024-01-27T00:04:28;37.35;36.07;40.16;;
67322;Laerm;57666;51.436;5.978;2024-01-27T00:04:38;37.45;36.35;39.12;;
67322;Laerm;57666;51.436;5.978;2024-01-27T00:04:48;37.39;36.41;38.58;;
67322;Laerm;57666;51.436;5.978;2024-01-27T00:04:59;37.31;35.98;38.28;;
67322;Laerm;57666;51.436;5.978;2024-01-27T00:05:09;37.46;36.24;39.82;;
67322;Laerm;57666;51.436;5.978;2024-01-27T00:05:19;39.18;35.96;52.81;;
67322;Laerm;57666;51.436;5.978;2024-01-27T00:05:30;38.00;35.80;45.48;;
67322;Laerm;57666;51.436;5.978;2024-01-27T00:05:40;37.57;36.11;48.76;;
67322;Laerm;57666;51.436;5.978;2024-01-27T00:05:50;37.22;36.10;38.27;;
67322;Laerm;57666;51.436;5.978;2024-01-27T00:06:01;37.29;36.28;40.69;;
67322;Laerm;57666;51.436;5.978;2024-01-27T00:06:12;37.13;35.99;38.15;;
67322;Laerm;57666;51.436;5.978;2024-01-27T00:06:22;37.31;36.21;40.19;;
67322;Laerm;57666;51.436;5.978;2024-01-27T00:06:33;37.38;36.26;40.01;;
67322;Laerm;57666;51.436;5.978;2024-01-27T00:06:43;37.23;36.03;38.13;;
67322;Laerm;57666;51.436;5.978;2024-01-27T00:06:53;37.41;36.45;39.94;;
67322;Laerm;57666;51.436;5.978;2024-01-27T00:07:04;37.51;36.33;39.90;;
67322;Laerm;57666;51.436;5.978;2024-01-27T00:07:14;37.91;36.30;48.78;;
67322;Laerm;57666;51.436;5.978;2024-01-27T00:07:24;37.36;36.31;38.42;;
67322;Laerm;57666;51.436;5.978;2024-01-27T00:07:37;37.45;36.29;41.26;;
67322;Laerm;57666;51.436;5.978;2024-01-27T00:07:47;37.48;36.24;39.44;;
67322;Laerm;57666;51.436;5.978;2024-01-27T00:07:57;37.45;36.03;40.92;;
67322;Laerm;57666;51.436;5.978;2024-01-27T00:08:08;37.40;35.86;41.02;;
67322;Laerm;57666;51.436;5.978;2024-01-27T00:08:18;37.49;36.31;38.71;;
67322;Laerm;57666;51.436;5.978;2024-01-27T00:08:29;37.65;36.34;38.81;;
67322;Laerm;57666;51.436;5.978;2024-01-27T00:08:39;37.46;36.20;38.46;;
67322;Laerm;57666;51.436;5.978;2024-01-27T00:08:49;37.70;36.35;42.90;;
67322;Laerm;57666;51.436;5.978;2024-01-27T00:09:00;38.48;36.48;47.78;;
67322;Laerm;57666;51.436;5.978;2024-01-27T00:09:10;39.05;36.38;50.93;;
67322;Laerm;57666;51.436;5.978;2024-01-27T00:09:21;37.79;36.18;43.90;;
67322;Laerm;57666;51.436;5.978;2024-01-27T00:09:31;38.80;35.90;51.45;;
67322;Laerm;57666;51.436;5.978;2024-01-27T00:09:42;41.73;36.58;56.08;;
67322;Laerm;57666;51.436;5.978;2024-01-27T00:09:53;39.42;36.11;53.09;;
67322;Laerm;57666;51.436;5.978;2024-01-27T00:10:04;45.67;36.47;62.43;;
67322;Laerm;57666;51.436;5.978;2024-01-27T00:10:15;44.08;36.30;60.79;;
67322;Laerm;57666;51.436;5.978;2024-01-27T00:10:25;38.63;36.02;50.87;;
67322;Laerm;57666;51.436;5.978;2024-01-27T00:10:36;37.64;35.42;43.43;;
67322;Laerm;57666;51.436;5.978;2024-01-27T00:10:46;37.27;35.83;38.61;;
67322;Laerm;57666;51.436;5.978;2024-01-27T00:11:02;37.38;36.20;38.55;;
67322;Laerm;57666;51.436;5.978;2024-01-27T00:11:12;37.38;35.77;38.55;;
67322;Laerm;57666;51.436;5.978;2024-01-27T00:11:23;37.49;36.26;38.80;;
67322;Laerm;57666;51.436;5.978;2024-01-27T00:11:34;37.55;36.11;38.58;;
67322;Laerm;57666;51.436;5.978;2024-01-27T00:11:45;38.25;36.41;43.30;;
67322;Laerm;57666;51.436;5.978;2024-01-27T00:11:55;37.36;35.71;38.74;;
67322;Laerm;57666;51.436;5.978;2024-01-27T00:12:06;37.57;36.29;39.17;;
67322;Laerm;57666;51.436;5.978;2024-01-27T00:12:16;37.53;36.53;39.51;;
67322;Laerm;57666;51.436;5.978;2024-01-27T00:12:27;38.01;36.51;39.19;;
67322;Laerm;57666;51.436;5.978;2024-01-27T00:12:37;37.48;36.12;38.35;;
67322;Laerm;57666;51.436;5.978;2024-01-27T00:12:47;37.66;36.21;39.81;;
67322;Laerm;57666;51.436;5.978;2024-01-27T00:12:58;37.75;36.73;39.24;;
67322;Laerm;57666;51.436;5.978;2024-01-27T00:13:08;37.45;36.04;39.05;;
67322;Laerm;57666;51.436;5.978;2024-01-27T00:13:18;37.47;35.56;38.80;;
67322;Laerm;57666;51.436;5.978;2024-01-27T00:13:29;37.54;36.35;38.69;;
67322;Laerm;57666;51.436;5.978;2024-01-27T00:13:39;37.52;36.20;38.78;;
67322;Laerm;57666;51.436;5.978;2024-01-27T00:13:49;37.70;36.32;38.78;;
67322;Laerm;57666;51.436;5.978;2024-01-27T00:14:00;37.52;35.89;44.56;;
67322;Laerm;57666;51.436;5.978;2024-01-27T00:14:11;37.43;36.05;38.51;;
67322;Laerm;57666;51.436;5.978;2024-01-27T00:14:21;37.43;36.34;38.40;;
67322;Laerm;57666;51.436;5.978;2024-01-27T00:14:32;37.47;36.18;38.68;;
67322;Laerm;57666;51.436;5.978;2024-01-27T00:14:42;37.18;35.79;38.69;;
67322;Laerm;57666;51.436;5.978;2024-01-27T00:14:53;41.73;36.45;52.89;;
67322;Laerm;57666;51.436;5.978;2024-01-27T00:15:06;51.14;36.72;64.03;;
67322;Laerm;57666;51.436;5.978;2024-01-27T00:15:17;39.22;36.35;49.18;;
67322;Laerm;57666;51.436;5.978;2024-01-27T00:15:27;37.50;36.33;41.29;;
67322;Laerm;57666;51.436;5.978;2024-01-27T00:15:37;38.08;36.37;46.36;;
67322;Laerm;57666;51.436;5.978;2024-01-27T00:15:48;43.06;36.27;54.88;;
67322;Laerm;57666;51.436;5.978;2024-01-27T00:15:58;44.27;36.84;55.18;;
67322;Laerm;57666;51.436;5.978;2024-01-27T00:16:08;44.74;36.46;60.28;;
67322;Laerm;57666;51.436;5.978;2024-01-27T00:16:19;40.83;36.66;54.36;;
67322;Laerm;57666;51.436;5.978;2024-01-27T00:16:29;48.93;36.56;62.54;;
67322;Laerm;57666;51.436;5.978;2024-01-27T00:16:40;47.30;36.34;59.12;;
67322;Laerm;57666;51.436;5.978;2024-01-27T00:16:50;52.27;36.55;67.05;;
67322;Laerm;57666;51.436;5.978;2024-01-27T00:17:00;42.36;36.45;56.87;;
67322;Laerm;57666;51.436;5.978;2024-01-27T00:17:11;44.71;37.29;57.63;;
67322;Laerm;57666;51.436;5.978;2024-01-27T00:17:21;41.60;36.49;54.80;;
67322;Laerm;57666;51.436;5.978;2024-01-27T00:17:35;44.18;36.81;56.91;;
67322;Laerm;57666;51.436;5.978;2024-01-27T00:17:46;40.13;36.06;50.36;;
67322;Laerm;57666;51.436;5.978;2024-01-27T00:17:56;38.81;36.84;47.73;;
67322;Laerm;57666;51.436;5.978;2024-01-27T00:18:06;50.13;36.48;61.23;;
67322;Laerm;57666;51.436;5.978;2024-01-27T00:18:17;49.14;36.44;62.45;;
67322;Laerm;57666;51.436;5.978;2024-01-27T00:18:27;38.63;36.26;49.40;;
67322;Laerm;57666;51.436;5.978;2024-01-27T00:18:37;37.85;36.12;49.81;;
67322;Laerm;57666;51.436;5.978;2024-01-27T00:18:48;37.74;35.81;43.41;;
67322;Laerm;57666;51.436;5.978;2024-01-27T00:18:58;38.62;36.01;47.90;;
67322;Laerm;57666;51.436;5.978;2024-01-27T00:19:09;40.40;36.24;51.43;;
67322;Laerm;57666;51.436;5.978;2024-01-27T00:19:19;43.89;36.21;57.54;;
67322;Laerm;57666;51.436;5.978;2024-01-27T00:19:29;38.94;36.24;46.86;;
67322;Laerm;57666;51.436;5.978;2024-01-27T00:19:40;39.67;36.05;53.73;;
67322;Laerm;57666;51.436;5.978;2024-01-27T00:19:50;39.31;36.33;48.41;;
67322;Laerm;57666;51.436;5.978;2024-01-27T00:20:01;41.03;36.35;51.32;;
67322;Laerm;57666;51.436;5.978;2024-01-27T00:20:12;38.22;36.54;43.33;;
67322;Laerm;57666;51.436;5.978;2024-01-27T00:20:22;38.16;36.37;46.99;;
67322;Laerm;57666;51.436;5.978;2024-01-27T00:20:33;39.19;36.06;49.81;;
67322;Laerm;57666;51.436;5.978;2024-01-27T00:20:44;41.31;36.66;51.70;;
67322;Laerm;57666;51.436;5.978;2024-01-27T00:20:54;39.36;36.51;48.18;;
67322;Laerm;57666;51.436;5.978;2024-01-27T00:21:05;40.05;36.41;52.97;;
67322;Laerm;57666;51.436;5.978;2024-01-27T00:21:16;46.77;36.31;60.56;;
67322;Laerm;57666;51.436;5.978;2024-01-27T00:21:26;47.78;36.15;61.98;;
67322;Laerm;57666;51.436;5.978;2024-01-27T00:21:36;45.08;36.73;57.09;;
67322;Laerm;57666;51.436;5.978;2024-01-27T00:21:47;48.05;36.49;62.22;;
67322;Laerm;57666;51.436;5.978;2024-01-27T00:21:57;47.52;36.70;59.62;;
67322;Laerm;57666;51.436;5.978;2024-01-27T00:22:08;41.10;36.39;53.05;;
67322;Laerm;57666;51.436;5.978;2024-01-27T00:22:21;41.03;36.59;54.10;;
67322;Laerm;57666;51.436;5.978;2024-01-27T00:22:32;39.37;36.82;51.82;;
67322;Laerm;57666;51.436;5.978;2024-01-27T00:22:42;37.86;36.58;42.94;;
67322;Laerm;57666;51.436;5.978;2024-01-27T00:22:53;37.32;36.16;38.85;;
67322;Laerm;57666;51.436;5.978;2024-01-27T00:23:03;37.39;36.27;38.77;;
67322;Laerm;57666;51.436;5.978;2024-01-27T00:23:13;37.66;36.69;39.05;;
67322;Laerm;57666;51.436;5.978;2024-01-27T00:23:24;37.49;36.27;38.55;;
67322;Laerm;57666;51.436;5.978;2024-01-27T00:23:34;44.19;37.26;51.43;;
67322;Laerm;57666;51.436;5.978;2024-01-27T00:23:44;38.93;36.20;44.71;;
67322;Laerm;57666;51.436;5.978;2024-01-27T00:23:55;37.36;36.21;38.65;;
67322;Laerm;57666;51.436;5.978;2024-01-27T00:24:10;37.66;36.58;38.77;;
67322;Laerm;57666;51.436;5.978;2024-01-27T00:24:21;37.66;36.68;39.82;;
67322;Laerm;57666;51.436;5.978;2024-01-27T00:24:31;37.71;36.35;38.80;;
67322;Laerm;57666;51.436;5.978;2024-01-27T00:24:42;37.69;36.39;40.30;;
67322;Laerm;57666;51.436;5.978;2024-01-27T00:24:52;37.71;36.58;38.70;;
67322;Laerm;57666;51.436;5.978;2024-01-27T00:25:03;37.81;36.61;39.38;;
67322;Laerm;57666;51.436;5.978;2024-01-27T00:25:13;37.61;36.53;38.69;;
67322;Laerm;57666;51.436;5.978;2024-01-27T00:25:23;37.56;36.46;41.18;;
67322;Laerm;57666;51.436;5.978;2024-01-27T00:25:33;37.62;36.19;41.30;;
67322;Laerm;57666;51.436;5.978;2024-01-27T00:25:44;44.56;38.00;51.99;;
67322;Laerm;57666;51.436;5.978;2024-01-27T00:25:54;37.84;36.41;40.46;;
67322;Laerm;57666;51.436;5.978;2024-01-27T00:26:05;37.24;36.03;38.26;;
67322;Laerm;57666;51.436;5.978;2024-01-27T00:26:15;37.28;36.17;38.39;;
67322;Laerm;57666;51.436;5.978;2024-01-27T00:26:25;37.37;36.23;38.59;;
67322;Laerm;57666;51.436;5.978;2024-01-27T00:26:36;37.53;36.34;38.80;;
67322;Laerm;57666;51.436;5.978;2024-01-27T00:26:47;37.42;36.12;38.80;;
67322;Laerm;57666;51.436;5.978;2024-01-27T00:26:57;37.35;36.21;38.48;;
67322;Laerm;57666;51.436;5.978;2024-01-27T00:27:07;37.42;36.24;38.73;;
67322;Laerm;57666;51.436;5.978;2024-01-27T00:27:18;37.43;36.43;38.44;;
67322;Laerm;57666;51.436;5.978;2024-01-27T00:27:28;37.61;36.53;38.97;;
67322;Laerm;57666;51.436;5.978;2024-01-27T00:27:38;37.37;36.47;38.40;;
67322;Laerm;57666;51.436;5.978;2024-01-27T00:27:49;37.42;36.44;38.56;;
67322;Laerm;57666;51.436;5.978;2024-01-27T00:27:59;37.50;36.49;38.66;;
67322;Laerm;57666;51.436;5.978;2024-01-27T00:28:09;37.64;36.51;38.54;;
67322;Laerm;57666;51.436;5.978;2024-01-27T00:28:19;37.41;36.40;38.74;;
67322;Laerm;57666;51.436;5.978;2024-01-27T00:28:30;37.50;36.14;38.54;;
67322;Laerm;57666;51.436;5.978;2024-01-27T00:28:40;37.90;36.73;39.27;;
67322;Laerm;57666;51.436;5.978;2024-01-27T00:28:51;45.79;37.09;53.96;;
67322;Laerm;57666;51.436;5.978;2024-01-27T00:29:01;49.65;46.10;56.91;;
67322;Laerm;57666;51.436;5.978;2024-01-27T00:29:11;48.50;45.38;52.26;;
67322;Laerm;57666;51.436;5.978;2024-01-27T00:29:21;41.84;37.18;48.32;;
67322;Laerm;57666;51.436;5.978;2024-01-27T00:29:32;37.34;36.01;38.79;;
67322;Laerm;57666;51.436;5.978;2024-01-27T00:29:42;37.23;36.12;38.25;;
67322;Laerm;57666;51.436;5.978;2024-01-27T00:29:53;37.41;35.94;38.36;;
67322;Laerm;57666;51.436;5.978;2024-01-27T00:30:03;37.28;36.01;38.50;;
67322;Laerm;57666;51.436;5.978;2024-01-27T00:30:14;37.33;36.07;38.47;;
67322;Laerm;57666;51.436;5.978;2024-01-27T00:30:24;37.52;36.44;38.53;;
67322;Laerm;57666;51.436;5.978;2024-01-27T00:30:35;37.54;35.96;38.55;;
67322;Laerm;57666;51.436;5.978;2024-01-27T00:30:46;37.43;36.10;38.69;;
67322;Laerm;57666;51.436;5.978;2024-01-27T00:30:56;37.14;36.07;38.64;;
67322;Laerm;57666;51.436;5.978;2024-01-27T00:31:06;37.00;35.75;38.32;;
67322;Laerm;57666;51.436;5.978;2024-01-27T00:31:17;37.19;36.01;38.42;;
67322;Laerm;57666;51.436;5.978;2024-01-27T00:31:27;37.28;36.21;38.72;;
67322;Laerm;57666;51.436;5.978;2024-01-27T00:31:37;37.40;36.03;43.86;;
67322;Laerm;57666;51.436;5.978;2024-01-27T00:31:48;37.42;36.45;38.48;;
67322;Laerm;57666;51.436;5.978;2024-01-27T00:31:59;37.22;36.01;38.30;;
67322;Laerm;57666;51.436;5.978;2024-01-27T00:32:09;37.08;35.85;38.16;;
67322;Laerm;57666;51.436;5.978;2024-01-27T00:32:20;37.27;36.07;38.94;;
67322;Laerm;57666;51.436;5.978;2024-01-27T00:32:30;37.12;35.81;38.32;;
67322;Laerm;57666;51.436;5.978;2024-01-27T00:32:41;37.24;35.88;38.46;;
67322;Laerm;57666;51.436;5.978;2024-01-27T00:32:51;37.33;35.71;39.36;;
67322;Laerm;57666;51.436;5.978;2024-01-27T00:33:02;37.38;36.29;38.46;;
67322;Laerm;57666;51.436;5.978;2024-01-27T00:33:12;37.74;36.62;38.95;;
67322;Laerm;57666;51.436;5.978;2024-01-27T00:33:22;37.61;36.44;38.68;;
67322;Laerm;57666;51.436;5.978;2024-01-27T00:33:33;37.58;36.52;39.53;;
67322;Laerm;57666;51.436;5.978;2024-01-27T00:33:43;48.78;36.71;65.34;;
67322;Laerm;57666;51.436;5.978;2024-01-27T00:33:53;57.62;36.69;70.48;;
67322;Laerm;57666;51.436;5.978;2024-01-27T00:34:04;38.96;36.55;47.05;;
67322;Laerm;57666;51.436;5.978;2024-01-27T00:34:14;45.94;37.01;57.72;;
67322;Laerm;57666;51.436;5.978;2024-01-27T00:34:25;41.91;36.92;54.81;;
67322;Laerm;57666;51.436;5.978;2024-01-27T00:34:35;49.62;36.57;62.30;;
67322;Laerm;57666;51.436;5.978;2024-01-27T00:34:46;44.41;36.82;56.63;;
67322;Laerm;57666;51.436;5.978;2024-01-27T00:34:59;43.55;36.35;56.70;;
67322;Laerm;57666;51.436;5.978;2024-01-27T00:35:09;41.59;36.56;52.85;;
67322;Laerm;57666;51.436;5.978;2024-01-27T00:35:21;44.67;36.51;57.18;;
67322;Laerm;57666;51.436;5.978;2024-01-27T00:35:32;42.38;36.77;54.79;;
67322;Laerm;57666;51.436;5.978;2024-01-27T00:35:42;43.59;36.97;56.78;;
67322;Laerm;57666;51.436;5.978;2024-01-27T00:35:53;41.88;36.41;53.15;;
67322;Laerm;57666;51.436;5.978;2024-01-27T00:36:04;43.21;36.76;55.73;;
67322;Laerm;57666;51.436;5.978;2024-01-27T00:36:14;41.66;36.80;57.75;;
67322;Laerm;57666;51.436;5.978;2024-01-27T00:36:25;40.90;36.87;52.27;;
67322;Laerm;57666;51.436;5.978;2024-01-27T00:36:35;37.81;36.47;40.65;;
67322;Laerm;57666;51.436;5.978;2024-01-27T00:36:47;46.69;36.76;60.25;;
67322;Laerm;57666;51.436;5.978;2024-01-27T00:37:00;45.59;36.58;59.68;;
67322;Laerm;57666;51.436;5.978;2024-01-27T00:37:10;42.69;36.76;53.51;;
67322;Laerm;57666;51.436;5.978;2024-01-27T00:37:21;41.23;35.93;50.84;;
67322;Laerm;57666;51.436;5.978;2024-01-27T00:37:34;44.09;36.59;60.20;;
67322;Laerm;57666;51.436;5.978;2024-01-27T00:37:44;39.39;35.99;53.29;;
67322;Laerm;57666;51.436;5.978;2024-01-27T00:37:54;42.19;36.49;55.40;;
67322;Laerm;57666;51.436;5.978;2024-01-27T00:38:05;40.38;36.95;49.78;;
67322;Laerm;57666;51.436;5.978;2024-01-27T00:38:15;39.64;36.72;53.62;;
67322;Laerm;57666;51.436;5.978;2024-01-27T00:38:25;38.94;37.12;48.83;;
67322;Laerm;57666;51.436;5.978;2024-01-27T00:38:36;40.73;37.27;52.54;;
67322;Laerm;57666;51.436;5.978;2024-01-27T00:38:46;50.33;40.59;54.54;;
67322;Laerm;57666;51.436;5.978;2024-01-27T00:38:57;50.00;47.40;52.80;;
67322;Laerm;57666;51.436;5.978;2024-01-27T00:39:07;43.28;36.66;51.09;;
67322;Laerm;57666;51.436;5.978;2024-01-27T00:39:18;37.47;36.31;38.93;;
67322;Laerm;57666;51.436;5.978;2024-01-27T00:39:29;37.49;35.68;38.71;;
67322;Laerm;57666;51.436;5.978;2024-01-27T00:39:40;37.63;36.33;40.63;;
67322;Laerm;57666;51.436;5.978;2024-01-27T00:39:50;37.52;36.29;42.16;;
67322;Laerm;57666;51.436;5.978;2024-01-27T00:40:01;37.72;36.41;40.09;;
67322;Laerm;57666;51.436;5.978;2024-01-27T00:40:11;37.54;36.00;39.65;;
67322;Laerm;57666;51.436;5.978;2024-01-27T00:40:22;37.36;36.29;38.47;;
67322;Laerm;57666;51.436;5.978;2024-01-27T00:40:32;37.63;36.20;38.96;;
67322;Laerm;57666;51.436;5.978;2024-01-27T00:40:43;37.41;36.37;38.56;;
67322;Laerm;57666;51.436;5.978;2024-01-27T00:40:53;37.53;36.36;38.64;;
67322;Laerm;57666;51.436;5.978;2024-01-27T00:41:03;37.67;36.67;38.70;;
67322;Laerm;57666;51.436;5.978;2024-01-27T00:41:17;39.01;36.87;43.79;;
67322;Laerm;57666;51.436;5.978;2024-01-27T00:41:28;44.19;36.52;51.74;;
67322;Laerm;57666;51.436;5.978;2024-01-27T00:41:38;37.43;36.28;38.40;;
67322;Laerm;57666;51.436;5.978;2024-01-27T00:41:48;37.54;36.33;39.17;;
67322;Laerm;57666;51.436;5.978;2024-01-27T00:41:59;37.52;36.48;38.73;;
67322;Laerm;57666;51.436;5.978;2024-01-27T00:42:09;37.51;36.39;38.68;;
67322;Laerm;57666;51.436;5.978;2024-01-27T00:42:19;37.54;36.16;38.88;;
67322;Laerm;57666;51.436;5.978;2024-01-27T00:42:34;37.66;36.43;38.86;;
67322;Laerm;57666;51.436;5.978;2024-01-27T00:42:44;37.48;36.02;38.57;;
67322;Laerm;57666;51.436;5.978;2024-01-27T00:42:54;37.51;36.38;38.87;;
67322;Laerm;57666;51.436;5.978;2024-01-27T00:43:05;37.43;36.35;38.87;;
67322;Laerm;57666;51.436;5.978;2024-01-27T00:43:15;37.55;36.53;38.83;;
67322;Laerm;57666;51.436;5.978;2024-01-27T00:43:25;37.54;36.34;39.38;;
67322;Laerm;57666;51.436;5.978;2024-01-27T00:43:35;37.47;36.41;38.84;;
67322;Laerm;57666;51.436;5.978;2024-01-27T00:43:46;37.51;36.35;38.64;;
67322;Laerm;57666;51.436;5.978;2024-01-27T00:43:56;37.62;36.48;38.67;;
67322;Laerm;57666;51.436;5.978;2024-01-27T00:44:07;37.66;36.36;38.92;;
67322;Laerm;57666;51.436;5.978;2024-01-27T00:44:17;37.67;36.70;38.81;;
67322;Laerm;57666;51.436;5.978;2024-01-27T00:44:27;37.75;36.30;38.97;;
67322;Laerm;57666;51.436;5.978;2024-01-27T00:44:38;37.73;36.59;39.03;;
67322;Laerm;57666;51.436;5.978;2024-01-27T00:44:48;37.52;36.33;39.16;;
67322;Laerm;57666;51.436;5.978;2024-01-27T00:44:58;37.43;36.35;38.35;;
67322;Laerm;57666;51.436;5.978;2024-01-27T00:45:09;37.40;36.35;38.85;;
67322;Laerm;57666;51.436;5.978;2024-01-27T00:45:19;37.59;36.55;38.69;;
67322;Laerm;57666;51.436;5.978;2024-01-27T00:45:29;37.50;36.48;38.69;;
67322;Laerm;57666;51.436;5.978;2024-01-27T00:45:40;37.62;36.44;38.94;;
67322;Laerm;57666;51.436;5.978;2024-01-27T00:45:50;37.62;36.35;38.87;;
67322;Laerm;57666;51.436;5.978;2024-01-27T00:46:00;37.53;36.44;38.55;;
67322;Laerm;57666;51.436;5.978;2024-01-27T00:46:11;37.41;36.35;38.47;;
67322;Laerm;57666;51.436;5.978;2024-01-27T00:46:21;37.62;36.35;38.64;;
67322;Laerm;57666;51.436;5.978;2024-01-27T00:46:32;37.44;36.45;38.82;;
67322;Laerm;57666;51.436;5.978;2024-01-27T00:46:42;37.68;36.71;38.73;;
67322;Laerm;57666;51.436;5.978;2024-01-27T00:46:52;37.71;36.46;39.23;;
67322;Laerm;57666;51.436;5.978;2024-01-27T00:47:03;37.50;36.39;38.63;;
67322;Laerm;57666;51.436;5.978;2024-01-27T00:47:13;37.66;36.26;39.13;;
67322;Laerm;57666;51.436;5.978;2024-01-27T00:47:24;38.41;36.53;41.01;;
67322;Laerm;57666;51.436;5.978;2024-01-27T00:47:34;42.83;36.64;49.55;;
67322;Laerm;57666;51.436;5.978;2024-01-27T00:47:44;37.45;36.10;38.91;;
67322;Laerm;57666;51.436;5.978;2024-01-27T00:47:54;37.67;36.40;38.75;;
67322;Laerm;57666;51.436;5.978;2024-01-27T00:48:05;37.84;36.46;39.30;;
67322;Laerm;57666;51.436;5.978;2024-01-27T00:48:16;38.01;36.24;39.46;;
67322;Laerm;57666;51.436;5.978;2024-01-27T00:48:26;37.74;36.53;38.88;;
67322;Laerm;57666;51.436;5.978;2024-01-27T00:48:37;37.82;36.51;38.86;;
67322;Laerm;57666;51.436;5.978;2024-01-27T00:48:47;37.81;36.54;38.86;;
67322;Laerm;57666;51.436;5.978;2024-01-27T00:48:57;37.76;36.64;39.01;;
67322;Laerm;57666;51.436;5.978;2024-01-27T00:49:08;37.53;36.41;38.76;;
67322;Laerm;57666;51.436;5.978;2024-01-27T00:49:18;37.62;36.48;38.62;;
67322;Laerm;57666;51.436;5.978;2024-01-27T00:49:28;37.57;36.21;38.64;;
67322;Laerm;57666;51.436;5.978;2024-01-27T00:49:39;37.71;36.57;38.75;;
67322;Laerm;57666;51.436;5.978;2024-01-27T00:49:49;37.87;36.89;39.04;;
67322;Laerm;57666;51.436;5.978;2024-01-27T00:49:59;37.78;36.60;38.70;;
67322;Laerm;57666;51.436;5.978;2024-01-27T00:50:12;37.99;36.71;39.71;;
67322;Laerm;57666;51.436;5.978;2024-01-27T00:50:23;37.85;36.51;39.26;;
67322;Laerm;57666;51.436;5.978;2024-01-27T00:50:33;37.73;36.53;38.85;;
67322;Laerm;57666;51.436;5.978;2024-01-27T00:50:43;37.69;36.57;38.79;;
67322;Laerm;57666;51.436;5.978;2024-01-27T00:50:54;37.83;36.28;38.99;;
67322;Laerm;57666;51.436;5.978;2024-01-27T00:51:04;37.75;36.68;39.11;;
67322;Laerm;57666;51.436;5.978;2024-01-27T00:51:15;37.67;36.47;38.92;;
67322;Laerm;57666;51.436;5.978;2024-01-27T00:51:25;38.21;36.88;40.54;;
67322;Laerm;57666;51.436;5.978;2024-01-27T00:51:35;37.92;36.25;39.22;;
67322;Laerm;57666;51.436;5.978;2024-01-27T00:51:45;37.62;35.97;38.74;;
67322;Laerm;57666;51.436;5.978;2024-01-27T00:51:56;37.52;36.22;38.94;;
67322;Laerm;57666;51.436;5.978;2024-01-27T00:52:06;37.53;36.62;38.74;;
67322;Laerm;57666;51.436;5.978;2024-01-27T00:52:16;37.57;36.25;38.61;;
67322;Laerm;57666;51.436;5.978;2024-01-27T00:52:27;37.49;36.38;38.35;;
67322;Laerm;57666;51.436;5.978;2024-01-27T00:52:37;37.57;36.38;39.00;;
67322;Laerm;57666;51.436;5.978;2024-01-27T00:52:47;37.55;36.25;38.70;;
67322;Laerm;57666;51.436;5.978;2024-01-27T00:52:58;37.55;36.25;39.13;;
67322;Laerm;57666;51.436;5.978;2024-01-27T00:53:08;37.42;36.21;38.77;;
67322;Laerm;57666;51.436;5.978;2024-01-27T00:53:18;37.67;36.20;38.78;;
67322;Laerm;57666;51.436;5.978;2024-01-27T00:53:29;37.59;36.35;38.74;;
67322;Laerm;57666;51.436;5.978;2024-01-27T00:53:39;37.55;36.21;38.85;;
67322;Laerm;57666;51.436;5.978;2024-01-27T00:53:51;37.52;36.28;39.06;;
67322;Laerm;57666;51.436;5.978;2024-01-27T00:54:01;37.72;36.60;38.78;;
67322;Laerm;57666;51.436;5.978;2024-01-27T00:54:12;37.66;36.46;38.84;;
67322;Laerm;57666;51.436;5.978;2024-01-27T00:54:22;37.55;36.44;38.66;;
67322;Laerm;57666;51.436;5.978;2024-01-27T00:54:32;37.65;36.14;38.92;;
67322;Laerm;57666;51.436;5.978;2024-01-27T00:54:43;37.39;36.26;38.37;;
67322;Laerm;57666;51.436;5.978;2024-01-27T00:54:53;37.27;36.03;38.43;;
67322;Laerm;57666;51.436;5.978;2024-01-27T00:55:03;37.44;36.06;38.48;;
67322;Laerm;57666;51.436;5.978;2024-01-27T00:55:14;37.57;36.36;38.90;;
67322;Laerm;57666;51.436;5.978;2024-01-27T00:55:24;37.58;36.06;38.95;;
67322;Laerm;57666;51.436;5.978;2024-01-27T00:55:35;37.42;36.33;38.61;;
67322;Laerm;57666;51.436;5.978;2024-01-27T00:55:45;37.37;36.26;38.71;;
67322;Laerm;57666;51.436;5.978;2024-01-27T00:55:55;37.27;36.26;38.45;;
67322;Laerm;57666;51.436;5.978;2024-01-27T00:56:06;37.45;36.42;38.47;;
67322;Laerm;57666;51.436;5.978;2024-01-27T00:56:16;37.49;36.56;39.00;;
67322;Laerm;57666;51.436;5.978;2024-01-27T00:56:26;37.53;36.37;39.26;;
67322;Laerm;57666;51.436;5.978;2024-01-27T00:56:37;37.73;36.53;39.20;;
67322;Laerm;57666;51.436;5.978;2024-01-27T00:56:47;38.02;36.71;38.99;;
67322;Laerm;57666;51.436;5.978;2024-01-27T00:56:58;37.74;36.66;39.54;;
67322;Laerm;57666;51.436;5.978;2024-01-27T00:57:08;37.79;36.66;38.78;;
67322;Laerm;57666;51.436;5.978;2024-01-27T00:57:19;37.73;36.78;38.64;;
67322;Laerm;57666;51.436;5.978;2024-01-27T00:57:29;37.38;35.98;38.90;;
67322;Laerm;57666;51.436;5.978;2024-01-27T00:57:39;37.45;36.39;38.66;;
67322;Laerm;57666;51.436;5.978;2024-01-27T00:57:50;37.59;36.30;38.80;;
67322;Laerm;57666;51.436;5.978;2024-01-27T00:58:00;37.68;36.48;38.87;;
67322;Laerm;57666;51.436;5.978;2024-01-27T00:58:11;37.69;36.31;38.99;;
67322;Laerm;57666;51.436;5.978;2024-01-27T00:58:21;37.67;36.55;38.76;;
67322;Laerm;57666;51.436;5.978;2024-01-27T00:58:32;37.65;36.21;38.75;;
67322;Laerm;57666;51.436;5.978;2024-01-27T00:58:42;38.09;36.22;54.33;;
67322;Laerm;57666;51.436;5.978;2024-01-27T00:58:52;37.48;36.19;38.68;;
67322;Laerm;57666;51.436;5.978;2024-01-27T00:59:03;37.59;36.19;39.15;;